Big Rapids, Michigan
Current Conditions -  °F | °C
As of 7:14 PM on Monday 20 Oct 2014 (Local Time) from KRQB Reporting Station
Overcast Overcast  
Wind Chill:   Ceiling: 1900
Heat Index:   Visibility: 7mi
Dew Point:   Wind: 8mph
Humidity: 99%   Direction: 330°NNW
Pressure: 29.89"   Gusts: NA
Location:  43.7°N, 85.48°W
Report Text: KRQB 202314Z AUTO 33007KT 7SM OVC019 09/09 A2989 RMK AO2 T00870086
Loading
Personal Weather Stations






























Interactive Weather Map New forecast layout! Learn more

10-Day Weather Forecast

Advertisements
Track Severe Weather on mobile